Binissalem, Spain
Current Conditions -  °F | °C
As of 2:30 PM on Saturday 20 Dec 2014 (Local Time) from LEPA Reporting Station
Few Clouds Few Clouds  
Wind Chill: 63°   Ceiling: Unl
Heat Index: 63°   Visibility: 6mi
Dew Point: 54°   Wind: 3mph
Humidity: 72%   Direction: 250°WSW
Pressure: 30.39"   Gusts: NA
Location:  39.69°N, 2.84°E
Report Text: LEPA 201330Z 25003KT 210V270 9999 FEW020 17/12 Q1029 NOSIG
Loading
Personal Weather Stations






























Interactive Weather Map New forecast layout! Learn more

10-Day Weather Forecast

Advertisements
Track Severe Weather on mobile